Kasagimaru — JJ3905 — position and weather

sailwx.info

Track history (hours):
 
Tides and Currents Weather Stations Pressure Air Temp Water Temp Dewpoint Dewpoint Depression Visibility Wind Speed Wind Dir Waves Ship Positions

Kasagimaru

Last reported at 2014-Nov-22 01:32 UTC. Time now 2014-Nov-22 01:59 UTC.
Position N 34°33' E 135°22'.

Length 42 m; draft 3.5 m.

Type: Tug. MMSI: 431300268.

Date/timePositionNaut miles runAvg speedWind from/ knotsBaromVisibWave heightAir tempDewpointWater temp
2014-Nov-22 01:32N 34°33' E 135°22'8 7.9
2014-Nov-22 00:30N 34°29' E 135°13'1313.1
2014-Nov-21 23:29N 34°20' E 135°02'8 8.6
2014-Nov-21 22:31N 34°12' E 135°00'1111.2
2014-Nov-21 21:33N 34°21' E 135°07'1211.9
2014-Nov-21 20:33N 34°28' E 135°19'8 7.1
2014-Nov-21 19:23N 34°33' E 135°27'0 0.0
2014-Nov-21 18:33N 34°33' E 135°27'0 0.0
2014-Nov-21 17:29N 34°33' E 135°27'0 0.0
2014-Nov-21 16:32N 34°33' E 135°27'0 0.0
2014-Nov-21 15:33N 34°33' E 135°27'0 0.0
2014-Nov-21 14:33N 34°33' E 135°27'0 0.0
2014-Nov-21 13:33N 34°33' E 135°27'0 0.0
2014-Nov-21 12:33N 34°33' E 135°27'0 0.0
2014-Nov-21 11:33N 34°33' E 135°27'0 0.0
2014-Nov-21 08:19N 34°33' E 135°27'0 0.0
2014-Nov-21 07:31N 34°33' E 135°27'0 0.0
2014-Nov-21 06:22N 34°33' E 135°27'0 0.0
2014-Nov-21 05:33N 34°33' E 135°27'0 0.0
2014-Nov-21 04:20N 34°33' E 135°27'0 0.0
2014-Nov-21 03:30N 34°33' E 135°27'0 0.0
2014-Nov-21 02:33N 34°33' E 135°27'0 0.0
2014-Nov-21 01:33N 34°33' E 135°27'1 0.5
2014-Nov-21 00:33N 34°33' E 135°26'1 0.8
2014-Nov-20 23:13N 34°33' E 135°25'1 1.8
2014-Nov-20 22:32N 34°33' E 135°27'0 0.0
2014-Nov-20 21:33N 34°33' E 135°27'0 0.0
2014-Nov-20 20:33N 34°33' E 135°27'0 0.0
2014-Nov-20 17:24N 34°33' E 135°27'0 0.0
2014-Nov-20 16:25N 34°33' E 135°27'0 0.0
2014-Nov-20 13:30N 34°33' E 135°27'0 0.0
2014-Nov-20 12:30N 34°33' E 135°27'0 0.0
2014-Nov-20 09:15N 34°33' E 135°27'0 0.0
2014-Nov-20 08:32N 34°33' E 135°27'8 8.5
2014-Nov-20 07:33N 34°35' E 135°17'1312.2
2014-Nov-20 06:31N 34°38' E 135°02'13 3.1
2014-Nov-20 02:17N 34°41' E 134°46'810.3
2014-Nov-20 01:32N 34°37' E 134°54'1211.6
2014-Nov-20 00:32N 34°36' E 135°08'1212.0
2014-Nov-19 23:33N 34°34' E 135°23'3 3.2
2014-Nov-19 22:29N 34°33' E 135°27'0 0.0
2014-Nov-19 21:33N 34°33' E 135°27'0 0.0
2014-Nov-19 20:31N 34°33' E 135°27'0 0.0
2014-Nov-19 19:33N 34°33' E 135°27'0 0.0
2014-Nov-19 18:33N 34°33' E 135°27'0 0.0
2014-Nov-19 17:33N 34°33' E 135°27'0 0.0
2014-Nov-19 16:33N 34°33' E 135°27'0 0.0
2014-Nov-19 15:33N 34°33' E 135°27'0 0.0
2014-Nov-19 14:33N 34°33' E 135°27'0 0.0
2014-Nov-19 13:31N 34°33' E 135°27'0 0.0
2014-Nov-19 12:33N 34°33' E 135°27'0 0.0
2014-Nov-19 11:26N 34°33' E 135°27'0 0.0
2014-Nov-19 10:23N 34°33' E 135°27'0 0.0
2014-Nov-19 06:08N 34°33' E 135°27'3 5.9
2014-Nov-19 05:33N 34°32' E 135°23'7 6.3
2014-Nov-19 04:30N 34°27' E 135°18'1010.1
2014-Nov-19 03:33N 34°21' E 135°08'1110.5
2014-Nov-19 02:32N 34°13' E 134°60'3 0.5
2014-Nov-18 20:21N 34°11' E 134°58'1011.7
2014-Nov-18 19:32N 34°19' E 135°04'1212.0
2014-Nov-18 18:33N 34°25' E 135°16'1211.8
2014-Nov-18 17:33N 34°33' E 135°26'0 0.5
2014-Nov-18 16:33N 34°33' E 135°27'0 0.0
2014-Nov-18 15:33N 34°33' E 135°27'0 0.0
2014-Nov-18 14:33N 34°33' E 135°27'0 0.0
2014-Nov-18 13:33N 34°33' E 135°27'0 0.0
2014-Nov-18 12:33N 34°33' E 135°27'0 0.0
2014-Nov-18 11:33N 34°33' E 135°27'0 0.0
2014-Nov-18 07:26N 34°33' E 135°27'1 1.2
2014-Nov-18 06:32N 34°33' E 135°25'4 4.6
2014-Nov-18 05:33N 34°33' E 135°20'1 1.2
2014-Nov-18 04:33N 34°34' E 135°18'6 5.2
2014-Nov-18 03:27N 34°33' E 135°25'0 0.5
2014-Nov-18 02:33N 34°33' E 135°26'1 0.8
2014-Nov-18 01:33N 34°33' E 135°27'0 0.0
2014-Nov-18 00:17N 34°33' E 135°27'0 0.0
2014-Nov-17 23:30N 34°33' E 135°27'0 0.0
2014-Nov-17 22:21N 34°33' E 135°27'0 0.0
2014-Nov-17 21:33N 34°33' E 135°27'0 0.0
2014-Nov-17 20:32N 34°33' E 135°27'0 0.0
2014-Nov-17 19:32N 34°33' E 135°27'0 0.0
2014-Nov-17 18:33N 34°33' E 135°27'0 0.0
2014-Nov-17 17:32N 34°33' E 135°27'0 0.0
2014-Nov-17 16:32N 34°33' E 135°27'0 0.0
2014-Nov-17 15:29N 34°33' E 135°27'0 0.0
2014-Nov-17 14:29N 34°33' E 135°27'0 0.0
2014-Nov-17 13:33N 34°33' E 135°27'0 0.0
2014-Nov-17 12:33N 34°33' E 135°27'0 0.0
2014-Nov-17 11:33N 34°33' E 135°27'0 0.0
2014-Nov-17 10:33N 34°33' E 135°27'0 0.0
2014-Nov-17 09:31N 34°33' E 135°27'0 0.0
2014-Nov-17 08:33N 34°33' E 135°27'0 0.0
2014-Nov-17 07:32N 34°33' E 135°27'0 0.0
2014-Nov-17 06:18N 34°33' E 135°27'0 0.0
2014-Nov-17 05:18N 34°33' E 135°27'0 0.0
2014-Nov-17 04:32N 34°33' E 135°27'0 0.0
2014-Nov-17 03:24N 34°33' E 135°27'0 0.0
2014-Nov-17 02:33N 34°33' E 135°27'0 0.0
2014-Nov-17 01:30N 34°33' E 135°27'1 1.1
2014-Nov-17 00:33N 34°33' E 135°25'1 0.9
2014-Nov-16 23:31N 34°34' E 135°26'1 0.7
2014-Nov-16 22:33N 34°33' E 135°27'0 0.0
2014-Nov-16 21:33N 34°33' E 135°27'0 0.0
2014-Nov-16 20:33N 34°33' E 135°27'0 0.0
2014-Nov-16 19:33N 34°33' E 135°27'0 0.0
2014-Nov-16 18:33N 34°33' E 135°27'0 0.0
2014-Nov-16 17:33N 34°33' E 135°27'0 0.0
2014-Nov-16 16:33N 34°33' E 135°27'0 0.0
2014-Nov-16 15:33N 34°33' E 135°27'0 0.0
2014-Nov-16 14:33N 34°33' E 135°27'0 0.0
2014-Nov-16 13:32N 34°33' E 135°27'0 0.0
2014-Nov-16 12:31N 34°33' E 135°27'0 0.0
2014-Nov-16 11:32N 34°33' E 135°27'0 0.0
2014-Nov-16 10:33N 34°33' E 135°27'0 0.0
2014-Nov-16 09:32N 34°33' E 135°27'0 0.0
2014-Nov-16 08:32N 34°33' E 135°27'0 0.0
2014-Nov-16 07:33N 34°33' E 135°27'1 0.6
2014-Nov-16 06:31N 34°34' E 135°26'1 1.2
2014-Nov-16 05:33N 34°33' E 135°25'2 1.5
2014-Nov-16 04:31N 34°33' E 135°26'0 0.3
2014-Nov-16 03:33N 34°33' E 135°27'0 0.0
2014-Nov-16 02:33N 34°33' E 135°27'1 1.1
2014-Nov-16 01:31N 34°33' E 135°25'0 0.4
2014-Nov-16 00:33N 34°33' E 135°25'1 0.9
2014-Nov-15 23:28N 34°33' E 135°27'0 0.0
2014-Nov-15 22:33N 34°33' E 135°27'0 0.0
2014-Nov-15 21:30N 34°33' E 135°27'0 0.0
2014-Nov-15 20:17N 34°33' E 135°27'0 0.0
2014-Nov-15 19:29N 34°33' E 135°27'0 0.0
2014-Nov-15 17:33N 34°33' E 135°27'0 0.0
2014-Nov-15 10:32N 34°33' E 135°27'0 0.0
2014-Nov-15 09:31N 34°33' E 135°27'2 2.6
2014-Nov-15 08:33N 34°32' E 135°24'1 0.6
2014-Nov-15 07:33N 34°31' E 135°24'0 0.0
2014-Nov-15 06:26N 34°31' E 135°24'0 0.0
2014-Nov-15 05:33N 34°31' E 135°24'2 1.9
2014-Nov-15 04:33N 34°33' E 135°24'1 0.5
2014-Nov-15 03:16N 34°34' E 135°24'0 0.1
2014-Nov-15 02:24N 34°34' E 135°24'3 3.4
2014-Nov-15 01:33N 34°33' E 135°21'4 4.4
2014-Nov-15 00:33N 34°33' E 135°26'0 0.5
2014-Nov-14 23:33N 34°33' E 135°27'0 0.0
2014-Nov-14 22:31N 34°33' E 135°27'0 0.0
2014-Nov-14 21:33N 34°33' E 135°27'0 0.0
2014-Nov-14 20:32N 34°33' E 135°27'0 0.0
2014-Nov-14 19:23N 34°33' E 135°27'0 0.0
2014-Nov-14 18:33N 34°33' E 135°27'0 0.0
2014-Nov-14 17:33N 34°33' E 135°27'0 0.0
2014-Nov-14 16:33N 34°33' E 135°27'0 0.0
2014-Nov-14 15:32N 34°33' E 135°27'0 0.0
2014-Nov-14 14:33N 34°33' E 135°27'0 0.0
2014-Nov-14 12:32N 34°33' E 135°27'0 0.0
2014-Nov-14 11:27N 34°33' E 135°27'0 0.0
2014-Nov-14 10:30N 34°33' E 135°27'0 0.0
2014-Nov-14 09:26N 34°33' E 135°27'0 0.0
2014-Nov-14 08:33N 34°33' E 135°27'0 0.0
2014-Nov-14 07:33N 34°33' E 135°27'2 2.1
2014-Nov-14 06:31N 34°31' E 135°25'1 0.4
2014-Nov-14 05:10N 34°31' E 135°24'3 4.0
2014-Nov-14 04:32N 34°33' E 135°27'0 0.0
2014-Nov-14 03:14N 34°33' E 135°27'0 0.0
2014-Nov-14 02:33N 34°33' E 135°27'0 0.0
2014-Nov-14 01:32N 34°33' E 135°27'0 0.0
2014-Nov-14 00:32N 34°33' E 135°27'0 0.0
2014-Nov-13 23:29N 34°33' E 135°27'0 0.0
2014-Nov-13 22:28N 34°33' E 135°27'0 0.0
2014-Nov-13 21:29N 34°33' E 135°27'0 0.0
2014-Nov-13 20:30N 34°33' E 135°27'0 0.0
2014-Nov-13 19:33N 34°33' E 135°27'0 0.0
2014-Nov-13 18:33N 34°33' E 135°27'0 0.0
2014-Nov-13 17:33N 34°33' E 135°27'0 0.0
2014-Nov-13 16:33N 34°33' E 135°27'0 0.0
2014-Nov-13 15:33N 34°33' E 135°27'0 0.0
2014-Nov-13 14:33N 34°33' E 135°27'0 0.0
2014-Nov-13 13:33N 34°33' E 135°27'0 0.0
2014-Nov-13 12:32N 34°33' E 135°27'0 0.0
2014-Nov-13 11:33N 34°33' E 135°27'0 0.0
2014-Nov-13 10:33N 34°33' E 135°27'0 0.0
2014-Nov-13 09:32N 34°33' E 135°27'0 0.0
2014-Nov-13 08:32N 34°33' E 135°27'0 0.0
2014-Nov-13 07:33N 34°33' E 135°27'0 0.0
2014-Nov-13 06:31N 34°33' E 135°27'0 0.0
2014-Nov-13 05:28N 34°33' E 135°27'1 1.0
2014-Nov-13 04:33N 34°33' E 135°25'0 0.5
2014-Nov-13 03:32N 34°33' E 135°25'4 3.6
2014-Nov-13 02:32N 34°34' E 135°21'1 1.0
2014-Nov-13 01:32N 34°34' E 135°20'5 5.0
2014-Nov-13 00:33N 34°33' E 135°26'0 0.1
2014-Nov-12 23:31N 34°33' E 135°26'0 0.2
2014-Nov-12 22:34N 34°33' E 135°26'1211.1
2014-Nov-12 21:31N 34°25' E 135°16'1411.7
2014-Nov-12 20:18N 34°16' E 135°03'6 7.5
2014-Nov-12 19:33N 34°13' E 135°09'0 0.0
2014-Nov-12 18:33N 34°13' E 135°09'0 0.0
2014-Nov-12 17:33N 34°13' E 135°09'0 0.0
2014-Nov-12 16:33N 34°13' E 135°09'0 0.0
2014-Nov-12 15:33N 34°13' E 135°09'0 0.0
2014-Nov-12 14:33N 34°13' E 135°09'0 0.0
2014-Nov-12 13:33N 34°13' E 135°09'0 0.0
2014-Nov-12 12:33N 34°13' E 135°09'0 0.0
2014-Nov-12 11:33N 34°13' E 135°09'0 0.0
2014-Nov-12 10:33N 34°13' E 135°09'0 0.0
2014-Nov-12 09:33N 34°13' E 135°09'0 0.0
2014-Nov-12 08:33N 34°13' E 135°09'0 0.0
2014-Nov-12 07:33N 34°13' E 135°09'0 0.0
2014-Nov-12 06:33N 34°13' E 135°09'0 0.0
2014-Nov-12 05:33N 34°13' E 135°09'0 0.0
2014-Nov-12 04:33N 34°13' E 135°09'0 0.0
2014-Nov-12 03:33N 34°13' E 135°09'0 0.0
2014-Nov-12 02:33N 34°13' E 135°09'0 0.0
2014-Nov-12 01:33N 34°13' E 135°09'  
Track history (hours):
 
Tides and Currents Weather Stations Pressure Air Temp Water Temp Dewpoint Dewpoint Depression Visibility Wind Speed Wind Dir Waves Ship Positions

Kasagimaru

Last reported at 2014-Nov-22 01:32 UTC. Time now 2014-Nov-22 01:59 UTC.
Position N 34°33' E 135°22'.

Length 42 m; draft 3.5 m.

Type: Tug. MMSI: 431300268.

Date/timePositionNaut miles runAvg speedWind from/ knotsBaromVisibWave heightAir tempDewpointWater temp
2014-Nov-22 01:32N 34°33' E 135°22'8 7.9
2014-Nov-22 00:30N 34°29' E 135°13'1313.1
2014-Nov-21 23:29N 34°20' E 135°02'8 8.6
2014-Nov-21 22:31N 34°12' E 135°00'1111.2
2014-Nov-21 21:33N 34°21' E 135°07'1211.9
2014-Nov-21 20:33N 34°28' E 135°19'8 7.1
2014-Nov-21 19:23N 34°33' E 135°27'0 0.0
2014-Nov-21 18:33N 34°33' E 135°27'0 0.0
2014-Nov-21 17:29N 34°33' E 135°27'0 0.0
2014-Nov-21 16:32N 34°33' E 135°27'0 0.0
2014-Nov-21 15:33N 34°33' E 135°27'0 0.0
2014-Nov-21 14:33N 34°33' E 135°27'0 0.0
2014-Nov-21 13:33N 34°33' E 135°27'0 0.0
2014-Nov-21 12:33N 34°33' E 135°27'0 0.0
2014-Nov-21 11:33N 34°33' E 135°27'0 0.0
2014-Nov-21 08:19N 34°33' E 135°27'0 0.0
2014-Nov-21 07:31N 34°33' E 135°27'0 0.0
2014-Nov-21 06:22N 34°33' E 135°27'0 0.0
2014-Nov-21 05:33N 34°33' E 135°27'0 0.0
2014-Nov-21 04:20N 34°33' E 135°27'0 0.0
2014-Nov-21 03:30N 34°33' E 135°27'0 0.0
2014-Nov-21 02:33N 34°33' E 135°27'0 0.0
2014-Nov-21 01:33N 34°33' E 135°27'1 0.5
2014-Nov-21 00:33N 34°33' E 135°26'1 0.8
2014-Nov-20 23:13N 34°33' E 135°25'1 1.8
2014-Nov-20 22:32N 34°33' E 135°27'0 0.0
2014-Nov-20 21:33N 34°33' E 135°27'0 0.0
2014-Nov-20 20:33N 34°33' E 135°27'0 0.0
2014-Nov-20 17:24N 34°33' E 135°27'0 0.0
2014-Nov-20 16:25N 34°33' E 135°27'0 0.0
2014-Nov-20 13:30N 34°33' E 135°27'0 0.0
2014-Nov-20 12:30N 34°33' E 135°27'0 0.0
2014-Nov-20 09:15N 34°33' E 135°27'0 0.0
2014-Nov-20 08:32N 34°33' E 135°27'8 8.5
2014-Nov-20 07:33N 34°35' E 135°17'1312.2
2014-Nov-20 06:31N 34°38' E 135°02'13 3.1
2014-Nov-20 02:17N 34°41' E 134°46'810.3
2014-Nov-20 01:32N 34°37' E 134°54'1211.6
2014-Nov-20 00:32N 34°36' E 135°08'1212.0
2014-Nov-19 23:33N 34°34' E 135°23'3 3.2
2014-Nov-19 22:29N 34°33' E 135°27'0 0.0
2014-Nov-19 21:33N 34°33' E 135°27'0 0.0
2014-Nov-19 20:31N 34°33' E 135°27'0 0.0
2014-Nov-19 19:33N 34°33' E 135°27'0 0.0
2014-Nov-19 18:33N 34°33' E 135°27'0 0.0
2014-Nov-19 17:33N 34°33' E 135°27'0 0.0
2014-Nov-19 16:33N 34°33' E 135°27'0 0.0
2014-Nov-19 15:33N 34°33' E 135°27'0 0.0
2014-Nov-19 14:33N 34°33' E 135°27'0 0.0
2014-Nov-19 13:31N 34°33' E 135°27'0 0.0
2014-Nov-19 12:33N 34°33' E 135°27'0 0.0
2014-Nov-19 11:26N 34°33' E 135°27'0 0.0
2014-Nov-19 10:23N 34°33' E 135°27'0 0.0
2014-Nov-19 06:08N 34°33' E 135°27'3 5.9
2014-Nov-19 05:33N 34°32' E 135°23'7 6.3
2014-Nov-19 04:30N 34°27' E 135°18'1010.1
2014-Nov-19 03:33N 34°21' E 135°08'1110.5
2014-Nov-19 02:32N 34°13' E 134°60'3 0.5
2014-Nov-18 20:21N 34°11' E 134°58'1011.7
2014-Nov-18 19:32N 34°19' E 135°04'1212.0
2014-Nov-18 18:33N 34°25' E 135°16'1211.8
2014-Nov-18 17:33N 34°33' E 135°26'0 0.5
2014-Nov-18 16:33N 34°33' E 135°27'0 0.0
2014-Nov-18 15:33N 34°33' E 135°27'0 0.0
2014-Nov-18 14:33N 34°33' E 135°27'0 0.0
2014-Nov-18 13:33N 34°33' E 135°27'0 0.0
2014-Nov-18 12:33N 34°33' E 135°27'0 0.0
2014-Nov-18 11:33N 34°33' E 135°27'0 0.0
2014-Nov-18 07:26N 34°33' E 135°27'1 1.2
2014-Nov-18 06:32N 34°33' E 135°25'4 4.6
2014-Nov-18 05:33N 34°33' E 135°20'1 1.2
2014-Nov-18 04:33N 34°34' E 135°18'6 5.2
2014-Nov-18 03:27N 34°33' E 135°25'0 0.5
2014-Nov-18 02:33N 34°33' E 135°26'1 0.8
2014-Nov-18 01:33N 34°33' E 135°27'0 0.0
2014-Nov-18 00:17N 34°33' E 135°27'0 0.0
2014-Nov-17 23:30N 34°33' E 135°27'0 0.0
2014-Nov-17 22:21N 34°33' E 135°27'0 0.0
2014-Nov-17 21:33N 34°33' E 135°27'0 0.0
2014-Nov-17 20:32N 34°33' E 135°27'0 0.0
2014-Nov-17 19:32N 34°33' E 135°27'0 0.0
2014-Nov-17 18:33N 34°33' E 135°27'0 0.0
2014-Nov-17 17:32N 34°33' E 135°27'0 0.0
2014-Nov-17 16:32N 34°33' E 135°27'0 0.0
2014-Nov-17 15:29N 34°33' E 135°27'0 0.0
2014-Nov-17 14:29N 34°33' E 135°27'0 0.0
2014-Nov-17 13:33N 34°33' E 135°27'0 0.0
2014-Nov-17 12:33N 34°33' E 135°27'0 0.0
2014-Nov-17 11:33N 34°33' E 135°27'0 0.0
2014-Nov-17 10:33N 34°33' E 135°27'0 0.0
2014-Nov-17 09:31N 34°33' E 135°27'0 0.0
2014-Nov-17 08:33N 34°33' E 135°27'0 0.0
2014-Nov-17 07:32N 34°33' E 135°27'0 0.0
2014-Nov-17 06:18N 34°33' E 135°27'0 0.0
2014-Nov-17 05:18N 34°33' E 135°27'0 0.0
2014-Nov-17 04:32N 34°33' E 135°27'0 0.0
2014-Nov-17 03:24N 34°33' E 135°27'0 0.0
2014-Nov-17 02:33N 34°33' E 135°27'0 0.0
2014-Nov-17 01:30N 34°33' E 135°27'1 1.1
2014-Nov-17 00:33N 34°33' E 135°25'1 0.9
2014-Nov-16 23:31N 34°34' E 135°26'1 0.7
2014-Nov-16 22:33N 34°33' E 135°27'0 0.0
2014-Nov-16 21:33N 34°33' E 135°27'0 0.0
2014-Nov-16 20:33N 34°33' E 135°27'0 0.0
2014-Nov-16 19:33N 34°33' E 135°27'0 0.0
2014-Nov-16 18:33N 34°33' E 135°27'0 0.0
2014-Nov-16 17:33N 34°33' E 135°27'0 0.0
2014-Nov-16 16:33N 34°33' E 135°27'0 0.0
2014-Nov-16 15:33N 34°33' E 135°27'0 0.0
2014-Nov-16 14:33N 34°33' E 135°27'0 0.0
2014-Nov-16 13:32N 34°33' E 135°27'0 0.0
2014-Nov-16 12:31N 34°33' E 135°27'0 0.0
2014-Nov-16 11:32N 34°33' E 135°27'0 0.0
2014-Nov-16 10:33N 34°33' E 135°27'0 0.0
2014-Nov-16 09:32N 34°33' E 135°27'0 0.0
2014-Nov-16 08:32N 34°33' E 135°27'0 0.0
2014-Nov-16 07:33N 34°33' E 135°27'1 0.6
2014-Nov-16 06:31N 34°34' E 135°26'1 1.2
2014-Nov-16 05:33N 34°33' E 135°25'2 1.5
2014-Nov-16 04:31N 34°33' E 135°26'0 0.3
2014-Nov-16 03:33N 34°33' E 135°27'0 0.0
2014-Nov-16 02:33N 34°33' E 135°27'1 1.1
2014-Nov-16 01:31N 34°33' E 135°25'0 0.4
2014-Nov-16 00:33N 34°33' E 135°25'1 0.9
2014-Nov-15 23:28N 34°33' E 135°27'0 0.0
2014-Nov-15 22:33N 34°33' E 135°27'0 0.0
2014-Nov-15 21:30N 34°33' E 135°27'0 0.0
2014-Nov-15 20:17N 34°33' E 135°27'0 0.0
2014-Nov-15 19:29N 34°33' E 135°27'0 0.0
2014-Nov-15 17:33N 34°33' E 135°27'0 0.0
2014-Nov-15 10:32N 34°33' E 135°27'0 0.0
2014-Nov-15 09:31N 34°33' E 135°27'2 2.6
2014-Nov-15 08:33N 34°32' E 135°24'1 0.6
2014-Nov-15 07:33N 34°31' E 135°24'0 0.0
2014-Nov-15 06:26N 34°31' E 135°24'0 0.0
2014-Nov-15 05:33N 34°31' E 135°24'2 1.9
2014-Nov-15 04:33N 34°33' E 135°24'1 0.5
2014-Nov-15 03:16N 34°34' E 135°24'0 0.1
2014-Nov-15 02:24N 34°34' E 135°24'3 3.4
2014-Nov-15 01:33N 34°33' E 135°21'4 4.4
2014-Nov-15 00:33N 34°33' E 135°26'0 0.5
2014-Nov-14 23:33N 34°33' E 135°27'0 0.0
2014-Nov-14 22:31N 34°33' E 135°27'0 0.0
2014-Nov-14 21:33N 34°33' E 135°27'0 0.0
2014-Nov-14 20:32N 34°33' E 135°27'0 0.0
2014-Nov-14 19:23N 34°33' E 135°27'0 0.0
2014-Nov-14 18:33N 34°33' E 135°27'0 0.0
2014-Nov-14 17:33N 34°33' E 135°27'0 0.0
2014-Nov-14 16:33N 34°33' E 135°27'0 0.0
2014-Nov-14 15:32N 34°33' E 135°27'0 0.0
2014-Nov-14 14:33N 34°33' E 135°27'0 0.0
2014-Nov-14 12:32N 34°33' E 135°27'0 0.0
2014-Nov-14 11:27N 34°33' E 135°27'0 0.0
2014-Nov-14 10:30N 34°33' E 135°27'0 0.0
2014-Nov-14 09:26N 34°33' E 135°27'0 0.0
2014-Nov-14 08:33N 34°33' E 135°27'0 0.0
2014-Nov-14 07:33N 34°33' E 135°27'2 2.1
2014-Nov-14 06:31N 34°31' E 135°25'1 0.4
2014-Nov-14 05:10N 34°31' E 135°24'3 4.0
2014-Nov-14 04:32N 34°33' E 135°27'0 0.0
2014-Nov-14 03:14N 34°33' E 135°27'0 0.0
2014-Nov-14 02:33N 34°33' E 135°27'0 0.0
2014-Nov-14 01:32N 34°33' E 135°27'0 0.0
2014-Nov-14 00:32N 34°33' E 135°27'0 0.0
2014-Nov-13 23:29N 34°33' E 135°27'0 0.0
2014-Nov-13 22:28N 34°33' E 135°27'0 0.0
2014-Nov-13 21:29N 34°33' E 135°27'0 0.0
2014-Nov-13 20:30N 34°33' E 135°27'0 0.0
2014-Nov-13 19:33N 34°33' E 135°27'0 0.0
2014-Nov-13 18:33N 34°33' E 135°27'0 0.0
2014-Nov-13 17:33N 34°33' E 135°27'0 0.0
2014-Nov-13 16:33N 34°33' E 135°27'0 0.0
2014-Nov-13 15:33N 34°33' E 135°27'0 0.0
2014-Nov-13 14:33N 34°33' E 135°27'0 0.0
2014-Nov-13 13:33N 34°33' E 135°27'0 0.0
2014-Nov-13 12:32N 34°33' E 135°27'0 0.0
2014-Nov-13 11:33N 34°33' E 135°27'0 0.0
2014-Nov-13 10:33N 34°33' E 135°27'0 0.0
2014-Nov-13 09:32N 34°33' E 135°27'0 0.0
2014-Nov-13 08:32N 34°33' E 135°27'0 0.0
2014-Nov-13 07:33N 34°33' E 135°27'0 0.0
2014-Nov-13 06:31N 34°33' E 135°27'0 0.0
2014-Nov-13 05:28N 34°33' E 135°27'1 1.0
2014-Nov-13 04:33N 34°33' E 135°25'0 0.5
2014-Nov-13 03:32N 34°33' E 135°25'4 3.6
2014-Nov-13 02:32N 34°34' E 135°21'1 1.0
2014-Nov-13 01:32N 34°34' E 135°20'5 5.0
2014-Nov-13 00:33N 34°33' E 135°26'0 0.1
2014-Nov-12 23:31N 34°33' E 135°26'0 0.2
2014-Nov-12 22:34N 34°33' E 135°26'1211.1
2014-Nov-12 21:31N 34°25' E 135°16'1411.7
2014-Nov-12 20:18N 34°16' E 135°03'6 7.5
2014-Nov-12 19:33N 34°13' E 135°09'0 0.0
2014-Nov-12 18:33N 34°13' E 135°09'0 0.0
2014-Nov-12 17:33N 34°13' E 135°09'0 0.0
2014-Nov-12 16:33N 34°13' E 135°09'0 0.0
2014-Nov-12 15:33N 34°13' E 135°09'0 0.0
2014-Nov-12 14:33N 34°13' E 135°09'0 0.0
2014-Nov-12 13:33N 34°13' E 135°09'0 0.0
2014-Nov-12 12:33N 34°13' E 135°09'0 0.0
2014-Nov-12 11:33N 34°13' E 135°09'0 0.0
2014-Nov-12 10:33N 34°13' E 135°09'0 0.0
2014-Nov-12 09:33N 34°13' E 135°09'0 0.0
2014-Nov-12 08:33N 34°13' E 135°09'0 0.0
2014-Nov-12 07:33N 34°13' E 135°09'0 0.0
2014-Nov-12 06:33N 34°13' E 135°09'0 0.0
2014-Nov-12 05:33N 34°13' E 135°09'0 0.0
2014-Nov-12 04:33N 34°13' E 135°09'0 0.0
2014-Nov-12 03:33N 34°13' E 135°09'0 0.0
2014-Nov-12 02:33N 34°13' E 135°09'0 0.0
2014-Nov-12 01:33N 34°13' E 135°09'  

Dump ship's entire track history